Bethania, NC

3:25 PM EST on November 24, 2014 (GMT -0500)
Piedmont Triad International | Change Station
CLOSE
Current Station
Airport
Location: Greensboro,
Elevation: 886 ft
Nearby Weather Stations

Elev 886 ft 36.10 °N, 79.94 °W | Updated 31 minutes ago

Clear
Clear
72 °F
Feels Like 72 °F
N
15
Wind Variable Wind from SW
Gusts 23 mph

Today
High -- | Low -- °F
--% Chance of Precip.
Yesterday
High -- | Low -- °F
Precip. -- in
7:07 AM 5:08 PM
Waxing Crescent, 7% visible
Pressure 29.71 in
Visibility 10.0 miles
Clouds Few 3500 ft
Scattered Clouds 11000 ft
Dew Point 54 °F
Humidity 53%
Rainfall 0.00 in
Snow Depth Not available.
UV 1 out of 12
Pollen .50 out of 12
Air Quality Not available.
Flu Activity Not available.
METAR KGSO 241954Z 23013G20KT 10SM FEW035 SCT110 22/12 A2973 RMK AO2 SLP059 T02220122

More Conditions Fewer Conditions

Pressure 29.71 in
Visibility 10.0 miles
Clouds Few 3500 ft
Scattered Clouds 11000 ft
Dew Point 54 °F
Humidity 53%
Rainfall 0.00 in
Snow Depth Not available.
UV 1 out of 12
Pollen .50 out of 12
Air Quality Not available.
Flu Activity Not available.
METAR KGSO 241954Z 23013G20KT 10SM FEW035 SCT110 22/12 A2973 RMK AO2 SLP059 T02220122

More Conditions Fewer Conditions

10-Day Weather Forecast

Almanac

Astronomy

Nov. 24, 2014 Rise Set
Actual Time
Civil Twilight
Nautical Twilight
Astronomical Twilight
Moon
Length of Visible Light
Length of Day
Tomorrow will be .
, % of the Moon is Illuminated

Today's Extremes

State Highs State Lows

Community

WunderPhotos

Upload Photos

1,773,403 photos uploaded!

WunderBlogs® & News

Nearby

Air Quality

  Air Quality AQ Index Pollutant
Not available.

Snow Depth

Station Depth Elevation

Earthquake Activity

City Distance Mag. Time & Date
Minimum magnitude displayed is 2.5.

Coastal Water Temperatures

Place Temperature

Nearby Weather Stations